메인 페이지
METAR-TAF:

METAR-TAF

공항 :

McAlester, 오클라호마, 미국

위도: 34-52-56N, 경도: 095-46-59W, 고도: 234m

현재 날씨관측

예보는 58분 전, 22:53시(UTC)에 발표되었습니다.
8kt, 순간 최대 풍속 20kt
온도 22°C
습도 31%
기압 1019 hPa
시정: 16.1km
고도 9500ft 상공 구름 조금

METAR: KMLC 282253Z AUTO 35008G20KT 10SM FEW095 22/04 A3010 RMK AO2 PK WND 35028/2159 SLP186 T02170039

시각: 18:51 (23:51 UTC)

예보

예보는 31분 전, 23:20시(UTC)에 발표되었습니다.
예보 대상 시간: 29일 00시부터 29일 24시까지 (UTC)
8kt, 순간 최대 풍속 20kt
시정: 10km
고도 10000ft 상공 구름 조금
29일 0200시부터 (UTC)
여러 방향의 바람 3kt
시정: 10km
맑음
29일 1500시부터 (UTC)
북서11kt
시정: 10km
맑음

TAF: KMLC 282320Z 2900/2924 35008G20KT P6SM FEW100 FM290200 VRB03KT P6SM SKC FM291500 31011KT P6SM SKC

4,000개 이상의 공항 관측 자료 및 예보 (METAR 및 TAF 보고).

지도상에서 검색 가능한 기상관측소가 노란 점과 빨간 점으로 표시되어 있습니다.

기상관측소 명을 보려면 표시 위로 마우스를 이동하세요.

날씨 관측과 예보를 보려면 클릭하세요.

지도 변경 : 확대하려면 엑스 표시가 있는 녹색 버튼, 축소하려면 빼기 표시가 있는 녹색 버튼, 다음 페이지의 지도를 보려면 녹색 화살표를 클릭하세요.


METAR-TAF: